sensor_id;sensor_type;location;lat;lon;timestamp;P1;durP1;ratioP1;P2;durP2;ratioP2
46411;SDS011;32113;42.012;24.870;2024-02-16T00:00:58;8.38;;;5.72;;
46411;SDS011;32113;42.012;24.870;2024-02-16T00:03:24;5.32;;;3.03;;
46411;SDS011;32113;42.012;24.870;2024-02-16T00:05:50;4.75;;;3.20;;
46411;SDS011;32113;42.012;24.870;2024-02-16T00:08:17;3.42;;;2.70;;
46411;SDS011;32113;42.012;24.870;2024-02-16T00:10:43;4.72;;;2.88;;
46411;SDS011;32113;42.012;24.870;2024-02-16T00:13:08;4.10;;;3.15;;
46411;SDS011;32113;42.012;24.870;2024-02-16T00:15:34;6.63;;;3.20;;
46411;SDS011;32113;42.012;24.870;2024-02-16T00:17:59;4.93;;;2.92;;
46411;SDS011;32113;42.012;24.870;2024-02-16T00:20:25;5.45;;;3.08;;
46411;SDS011;32113;42.012;24.870;2024-02-16T00:22:50;5.22;;;3.13;;
46411;SDS011;32113;42.012;24.870;2024-02-16T00:25:16;4.38;;;2.83;;
46411;SDS011;32113;42.012;24.870;2024-02-16T00:27:43;4.20;;;3.22;;
46411;SDS011;32113;42.012;24.870;2024-02-16T00:30:08;6.45;;;4.60;;
46411;SDS011;32113;42.012;24.870;2024-02-16T00:32:35;7.97;;;4.65;;
46411;SDS011;32113;42.012;24.870;2024-02-16T00:35:02;8.90;;;4.90;;
46411;SDS011;32113;42.012;24.870;2024-02-16T00:37:27;7.82;;;4.32;;
46411;SDS011;32113;42.012;24.870;2024-02-16T00:39:53;8.77;;;4.25;;
46411;SDS011;32113;42.012;24.870;2024-02-16T00:42:20;7.22;;;4.18;;
46411;SDS011;32113;42.012;24.870;2024-02-16T00:44:46;9.13;;;4.35;;
46411;SDS011;32113;42.012;24.870;2024-02-16T00:47:12;5.63;;;3.75;;
46411;SDS011;32113;42.012;24.870;2024-02-16T00:49:39;6.35;;;4.20;;
46411;SDS011;32113;42.012;24.870;2024-02-16T00:52:05;5.88;;;4.13;;
46411;SDS011;32113;42.012;24.870;2024-02-16T00:54:30;7.70;;;4.45;;
46411;SDS011;32113;42.012;24.870;2024-02-16T00:56:56;6.97;;;4.32;;
46411;SDS011;32113;42.012;24.870;2024-02-16T00:59:26;5.85;;;3.85;;
46411;SDS011;32113;42.012;24.870;2024-02-16T01:01:51;6.25;;;4.28;;
46411;SDS011;32113;42.012;24.870;2024-02-16T01:04:17;7.82;;;4.15;;
46411;SDS011;32113;42.012;24.870;2024-02-16T01:06:42;8.88;;;4.30;;
46411;SDS011;32113;42.012;24.870;2024-02-16T01:09:07;6.50;;;4.05;;
46411;SDS011;32113;42.012;24.870;2024-02-16T01:11:33;6.68;;;4.05;;
46411;SDS011;32113;42.012;24.870;2024-02-16T01:13:59;6.72;;;4.38;;
46411;SDS011;32113;42.012;24.870;2024-02-16T01:16:25;8.52;;;4.10;;
46411;SDS011;32113;42.012;24.870;2024-02-16T01:18:50;6.88;;;4.05;;
46411;SDS011;32113;42.012;24.870;2024-02-16T01:21:15;6.20;;;4.40;;
46411;SDS011;32113;42.012;24.870;2024-02-16T01:23:41;6.22;;;4.35;;
46411;SDS011;32113;42.012;24.870;2024-02-16T01:26:06;6.18;;;4.38;;
46411;SDS011;32113;42.012;24.870;2024-02-16T01:28:32;6.30;;;4.22;;
46411;SDS011;32113;42.012;24.870;2024-02-16T01:30:57;8.05;;;4.50;;
46411;SDS011;32113;42.012;24.870;2024-02-16T01:33:23;6.70;;;4.20;;
46411;SDS011;32113;42.012;24.870;2024-02-16T01:35:48;9.88;;;3.70;;
46411;SDS011;32113;42.012;24.870;2024-02-16T01:38:13;9.02;;;4.18;;
46411;SDS011;32113;42.012;24.870;2024-02-16T01:40:39;6.78;;;4.40;;
46411;SDS011;32113;42.012;24.870;2024-02-16T01:43:05;7.82;;;4.32;;
46411;SDS011;32113;42.012;24.870;2024-02-16T01:45:30;7.50;;;4.20;;
46411;SDS011;32113;42.012;24.870;2024-02-16T01:47:56;6.40;;;4.38;;
46411;SDS011;32113;42.012;24.870;2024-02-16T01:50:22;6.75;;;4.53;;
46411;SDS011;32113;42.012;24.870;2024-02-16T01:52:48;6.15;;;4.10;;
46411;SDS011;32113;42.012;24.870;2024-02-16T01:55:15;8.35;;;4.28;;
46411;SDS011;32113;42.012;24.870;2024-02-16T01:57:45;8.45;;;4.25;;
46411;SDS011;32113;42.012;24.870;2024-02-16T02:00:12;6.30;;;4.10;;
46411;SDS011;32113;42.012;24.870;2024-02-16T02:02:40;7.03;;;4.32;;
46411;SDS011;32113;42.012;24.870;2024-02-16T02:05:06;6.65;;;4.00;;
46411;SDS011;32113;42.012;24.870;2024-02-16T02:07:32;6.90;;;3.47;;
46411;SDS011;32113;42.012;24.870;2024-02-16T02:09:58;5.93;;;3.45;;
46411;SDS011;32113;42.012;24.870;2024-02-16T02:12:24;6.05;;;3.85;;
46411;SDS011;32113;42.012;24.870;2024-02-16T02:14:49;5.80;;;3.42;;
46411;SDS011;32113;42.012;24.870;2024-02-16T02:17:16;5.68;;;3.83;;
46411;SDS011;32113;42.012;24.870;2024-02-16T02:19:42;6.53;;;3.80;;
46411;SDS011;32113;42.012;24.870;2024-02-16T02:22:13;8.30;;;4.22;;
46411;SDS011;32113;42.012;24.870;2024-02-16T02:24:43;7.13;;;3.97;;
46411;SDS011;32113;42.012;24.870;2024-02-16T02:27:09;5.32;;;3.95;;
46411;SDS011;32113;42.012;24.870;2024-02-16T02:29:35;8.02;;;4.38;;
46411;SDS011;32113;42.012;24.870;2024-02-16T02:32:00;7.18;;;4.50;;
46411;SDS011;32113;42.012;24.870;2024-02-16T02:34:26;8.27;;;4.35;;
46411;SDS011;32113;42.012;24.870;2024-02-16T02:36:51;7.10;;;4.70;;
46411;SDS011;32113;42.012;24.870;2024-02-16T02:39:17;7.90;;;5.18;;
46411;SDS011;32113;42.012;24.870;2024-02-16T02:41:42;9.23;;;5.07;;
46411;SDS011;32113;42.012;24.870;2024-02-16T02:44:08;7.60;;;5.03;;
46411;SDS011;32113;42.012;24.870;2024-02-16T02:46:34;24.13;;;11.25;;
46411;SDS011;32113;42.012;24.870;2024-02-16T02:49:00;11.20;;;7.63;;
46411;SDS011;32113;42.012;24.870;2024-02-16T02:51:25;16.33;;;8.13;;
46411;SDS011;32113;42.012;24.870;2024-02-16T02:53:52;17.92;;;10.40;;
46411;SDS011;32113;42.012;24.870;2024-02-16T02:56:17;11.77;;;7.45;;
46411;SDS011;32113;42.012;24.870;2024-02-16T02:58:43;10.48;;;7.00;;
46411;SDS011;32113;42.012;24.870;2024-02-16T03:01:08;8.60;;;6.45;;
46411;SDS011;32113;42.012;24.870;2024-02-16T03:03:34;11.63;;;7.25;;
46411;SDS011;32113;42.012;24.870;2024-02-16T03:05:59;9.55;;;6.25;;
46411;SDS011;32113;42.012;24.870;2024-02-16T03:08:25;10.10;;;5.80;;
46411;SDS011;32113;42.012;24.870;2024-02-16T03:10:50;14.25;;;6.72;;
46411;SDS011;32113;42.012;24.870;2024-02-16T03:13:16;12.93;;;5.82;;
46411;SDS011;32113;42.012;24.870;2024-02-16T03:15:44;14.03;;;6.03;;
46411;SDS011;32113;42.012;24.870;2024-02-16T03:18:10;14.15;;;6.82;;
46411;SDS011;32113;42.012;24.870;2024-02-16T03:20:35;10.43;;;5.70;;
46411;SDS011;32113;42.012;24.870;2024-02-16T03:23:01;11.00;;;6.03;;
46411;SDS011;32113;42.012;24.870;2024-02-16T03:25:28;8.65;;;5.18;;
46411;SDS011;32113;42.012;24.870;2024-02-16T03:27:53;9.35;;;5.72;;
46411;SDS011;32113;42.012;24.870;2024-02-16T03:30:19;15.13;;;8.43;;
46411;SDS011;32113;42.012;24.870;2024-02-16T03:32:50;10.52;;;7.07;;
46411;SDS011;32113;42.012;24.870;2024-02-16T03:35:17;12.32;;;8.05;;
46411;SDS011;32113;42.012;24.870;2024-02-16T03:37:43;12.85;;;8.80;;
46411;SDS011;32113;42.012;24.870;2024-02-16T03:40:08;13.57;;;8.50;;
46411;SDS011;32113;42.012;24.870;2024-02-16T03:42:37;11.25;;;8.25;;
46411;SDS011;32113;42.012;24.870;2024-02-16T03:45:06;13.80;;;8.43;;
46411;SDS011;32113;42.012;24.870;2024-02-16T03:47:32;15.60;;;6.88;;
46411;SDS011;32113;42.012;24.870;2024-02-16T03:49:57;8.98;;;5.22;;
46411;SDS011;32113;42.012;24.870;2024-02-16T03:52:23;6.40;;;3.25;;
46411;SDS011;32113;42.012;24.870;2024-02-16T03:54:48;11.43;;;4.40;;
46411;SDS011;32113;42.012;24.870;2024-02-16T03:57:15;5.28;;;3.88;;
46411;SDS011;32113;42.012;24.870;2024-02-16T03:59:44;10.25;;;4.07;;
46411;SDS011;32113;42.012;24.870;2024-02-16T04:02:10;14.30;;;4.43;;
46411;SDS011;32113;42.012;24.870;2024-02-16T04:04:35;10.73;;;4.95;;
46411;SDS011;32113;42.012;24.870;2024-02-16T04:07:01;8.32;;;4.10;;
46411;SDS011;32113;42.012;24.870;2024-02-16T04:09:26;12.05;;;5.38;;
46411;SDS011;32113;42.012;24.870;2024-02-16T04:11:52;8.55;;;4.28;;
46411;SDS011;32113;42.012;24.870;2024-02-16T04:14:17;8.55;;;5.18;;
46411;SDS011;32113;42.012;24.870;2024-02-16T04:16:43;11.75;;;5.03;;
46411;SDS011;32113;42.012;24.870;2024-02-16T04:19:09;7.03;;;4.50;;
46411;SDS011;32113;42.012;24.870;2024-02-16T04:21:34;9.15;;;5.30;;
46411;SDS011;32113;42.012;24.870;2024-02-16T04:24:00;7.07;;;4.63;;
46411;SDS011;32113;42.012;24.870;2024-02-16T04:26:25;9.00;;;4.57;;
46411;SDS011;32113;42.012;24.870;2024-02-16T04:28:50;8.35;;;4.47;;
46411;SDS011;32113;42.012;24.870;2024-02-16T04:31:16;17.25;;;5.80;;
46411;SDS011;32113;42.012;24.870;2024-02-16T04:33:41;17.38;;;5.72;;
46411;SDS011;32113;42.012;24.870;2024-02-16T04:36:07;9.57;;;5.55;;
46411;SDS011;32113;42.012;24.870;2024-02-16T04:38:33;8.57;;;5.18;;
46411;SDS011;32113;42.012;24.870;2024-02-16T04:40:58;16.42;;;5.95;;
46411;SDS011;32113;42.012;24.870;2024-02-16T04:43:23;13.75;;;6.18;;
46411;SDS011;32113;42.012;24.870;2024-02-16T04:45:49;21.85;;;6.25;;
46411;SDS011;32113;42.012;24.870;2024-02-16T04:48:15;12.98;;;5.75;;
46411;SDS011;32113;42.012;24.870;2024-02-16T04:50:40;18.73;;;6.32;;
46411;SDS011;32113;42.012;24.870;2024-02-16T04:53:06;13.55;;;6.85;;
46411;SDS011;32113;42.012;24.870;2024-02-16T04:55:31;13.10;;;5.43;;
46411;SDS011;32113;42.012;24.870;2024-02-16T04:57:56;15.35;;;5.00;;
46411;SDS011;32113;42.012;24.870;2024-02-16T05:00:22;11.25;;;4.93;;
46411;SDS011;32113;42.012;24.870;2024-02-16T05:02:48;9.55;;;4.82;;
46411;SDS011;32113;42.012;24.870;2024-02-16T05:05:13;8.43;;;4.82;;
46411;SDS011;32113;42.012;24.870;2024-02-16T05:07:40;10.65;;;5.88;;
46411;SDS011;32113;42.012;24.870;2024-02-16T05:10:10;11.57;;;6.07;;
46411;SDS011;32113;42.012;24.870;2024-02-16T05:12:36;11.02;;;5.45;;
46411;SDS011;32113;42.012;24.870;2024-02-16T05:15:02;12.32;;;5.40;;
46411;SDS011;32113;42.012;24.870;2024-02-16T05:17:28;8.15;;;5.47;;
46411;SDS011;32113;42.012;24.870;2024-02-16T05:19:54;9.10;;;5.93;;
46411;SDS011;32113;42.012;24.870;2024-02-16T05:22:19;12.65;;;6.28;;
46411;SDS011;32113;42.012;24.870;2024-02-16T05:24:46;9.83;;;6.33;;
46411;SDS011;32113;42.012;24.870;2024-02-16T05:27:12;10.65;;;6.40;;
46411;SDS011;32113;42.012;24.870;2024-02-16T05:29:38;8.65;;;5.70;;
46411;SDS011;32113;42.012;24.870;2024-02-16T05:32:03;15.10;;;6.70;;
46411;SDS011;32113;42.012;24.870;2024-02-16T05:34:29;12.75;;;6.53;;
46411;SDS011;32113;42.012;24.870;2024-02-16T05:36:58;14.70;;;6.75;;
46411;SDS011;32113;42.012;24.870;2024-02-16T05:39:23;14.45;;;7.25;;
46411;SDS011;32113;42.012;24.870;2024-02-16T05:44:20;17.63;;;10.10;;
46411;SDS011;32113;42.012;24.870;2024-02-16T05:46:45;18.60;;;8.88;;
46411;SDS011;32113;42.012;24.870;2024-02-16T05:49:11;15.73;;;9.30;;
46411;SDS011;32113;42.012;24.870;2024-02-16T05:51:37;14.27;;;8.32;;
46411;SDS011;32113;42.012;24.870;2024-02-16T05:54:06;17.08;;;8.25;;
46411;SDS011;32113;42.012;24.870;2024-02-16T05:56:32;21.17;;;12.68;;
46411;SDS011;32113;42.012;24.870;2024-02-16T05:59:02;20.25;;;9.63;;
46411;SDS011;32113;42.012;24.870;2024-02-16T06:01:28;26.05;;;10.85;;
46411;SDS011;32113;42.012;24.870;2024-02-16T06:03:54;17.45;;;8.52;;
46411;SDS011;32113;42.012;24.870;2024-02-16T06:06:20;15.95;;;8.43;;
46411;SDS011;32113;42.012;24.870;2024-02-16T06:08:45;24.15;;;8.73;;
46411;SDS011;32113;42.012;24.870;2024-02-16T06:11:10;20.83;;;9.85;;
46411;SDS011;32113;42.012;24.870;2024-02-16T06:13:36;22.10;;;9.35;;
46411;SDS011;32113;42.012;24.870;2024-02-16T06:16:04;29.13;;;15.13;;
46411;SDS011;32113;42.012;24.870;2024-02-16T06:18:30;35.88;;;19.73;;
46411;SDS011;32113;42.012;24.870;2024-02-16T06:20:55;27.23;;;14.38;;
46411;SDS011;32113;42.012;24.870;2024-02-16T06:23:21;34.10;;;15.98;;
46411;SDS011;32113;42.012;24.870;2024-02-16T06:25:46;46.70;;;20.83;;
46411;SDS011;32113;42.012;24.870;2024-02-16T06:28:11;37.53;;;16.70;;
46411;SDS011;32113;42.012;24.870;2024-02-16T06:30:37;31.27;;;16.50;;
46411;SDS011;32113;42.012;24.870;2024-02-16T06:33:02;23.83;;;14.80;;
46411;SDS011;32113;42.012;24.870;2024-02-16T06:35:29;24.48;;;14.32;;
46411;SDS011;32113;42.012;24.870;2024-02-16T06:37:55;32.05;;;19.83;;
46411;SDS011;32113;42.012;24.870;2024-02-16T06:40:20;34.45;;;18.65;;
46411;SDS011;32113;42.012;24.870;2024-02-16T06:42:46;32.85;;;17.58;;
46411;SDS011;32113;42.012;24.870;2024-02-16T06:45:11;30.58;;;17.52;;
46411;SDS011;32113;42.012;24.870;2024-02-16T06:47:37;35.53;;;15.40;;
46411;SDS011;32113;42.012;24.870;2024-02-16T06:50:02;38.67;;;22.80;;
46411;SDS011;32113;42.012;24.870;2024-02-16T06:52:28;61.88;;;39.15;;
46411;SDS011;32113;42.012;24.870;2024-02-16T06:54:54;110.85;;;76.38;;
46411;SDS011;32113;42.012;24.870;2024-02-16T06:57:19;61.85;;;41.92;;
46411;SDS011;32113;42.012;24.870;2024-02-16T06:59:47;35.83;;;19.95;;
46411;SDS011;32113;42.012;24.870;2024-02-16T07:02:13;43.55;;;25.13;;
46411;SDS011;32113;42.012;24.870;2024-02-16T07:04:40;32.67;;;19.63;;
46411;SDS011;32113;42.012;24.870;2024-02-16T07:07:05;24.98;;;14.27;;
46411;SDS011;32113;42.012;24.870;2024-02-16T07:09:31;28.02;;;14.30;;
46411;SDS011;32113;42.012;24.870;2024-02-16T07:11:57;32.58;;;15.30;;
46411;SDS011;32113;42.012;24.870;2024-02-16T07:14:23;35.30;;;15.77;;
46411;SDS011;32113;42.012;24.870;2024-02-16T07:16:49;35.13;;;13.93;;
46411;SDS011;32113;42.012;24.870;2024-02-16T07:19:14;37.67;;;13.27;;
46411;SDS011;32113;42.012;24.870;2024-02-16T07:21:40;36.63;;;14.70;;
46411;SDS011;32113;42.012;24.870;2024-02-16T07:24:06;41.08;;;18.48;;
46411;SDS011;32113;42.012;24.870;2024-02-16T07:26:31;42.88;;;15.73;;
46411;SDS011;32113;42.012;24.870;2024-02-16T07:28:56;36.92;;;15.52;;
46411;SDS011;32113;42.012;24.870;2024-02-16T07:31:22;32.97;;;14.80;;
46411;SDS011;32113;42.012;24.870;2024-02-16T07:33:47;26.77;;;14.40;;
46411;SDS011;32113;42.012;24.870;2024-02-16T07:36:13;26.95;;;12.82;;
46411;SDS011;32113;42.012;24.870;2024-02-16T07:38:39;30.15;;;13.45;;
46411;SDS011;32113;42.012;24.870;2024-02-16T07:41:04;35.50;;;12.32;;
46411;SDS011;32113;42.012;24.870;2024-02-16T07:43:30;36.17;;;13.15;;
46411;SDS011;32113;42.012;24.870;2024-02-16T07:45:56;29.23;;;12.73;;
46411;SDS011;32113;42.012;24.870;2024-02-16T07:48:22;43.28;;;12.95;;
46411;SDS011;32113;42.012;24.870;2024-02-16T07:50:48;26.27;;;12.32;;
46411;SDS011;32113;42.012;24.870;2024-02-16T07:53:15;33.85;;;12.32;;
46411;SDS011;32113;42.012;24.870;2024-02-16T07:55:41;23.65;;;14.38;;
46411;SDS011;32113;42.012;24.870;2024-02-16T07:58:06;25.20;;;14.25;;
46411;SDS011;32113;42.012;24.870;2024-02-16T08:00:32;21.77;;;14.13;;
46411;SDS011;32113;42.012;24.870;2024-02-16T08:02:57;36.17;;;15.73;;
46411;SDS011;32113;42.012;24.870;2024-02-16T08:05:23;30.70;;;13.93;;
46411;SDS011;32113;42.012;24.870;2024-02-16T08:07:49;34.63;;;13.48;;
46411;SDS011;32113;42.012;24.870;2024-02-16T08:10:15;22.00;;;10.43;;
46411;SDS011;32113;42.012;24.870;2024-02-16T08:12:45;17.60;;;11.00;;
46411;SDS011;32113;42.012;24.870;2024-02-16T08:15:11;20.25;;;11.57;;
46411;SDS011;32113;42.012;24.870;2024-02-16T08:17:37;22.95;;;10.13;;
46411;SDS011;32113;42.012;24.870;2024-02-16T08:20:04;21.98;;;10.63;;
46411;SDS011;32113;42.012;24.870;2024-02-16T08:22:30;23.05;;;9.35;;
46411;SDS011;32113;42.012;24.870;2024-02-16T08:24:55;17.52;;;8.50;;
46411;SDS011;32113;42.012;24.870;2024-02-16T08:27:21;23.45;;;8.07;;
46411;SDS011;32113;42.012;24.870;2024-02-16T08:29:46;15.73;;;8.90;;
46411;SDS011;32113;42.012;24.870;2024-02-16T08:32:12;25.40;;;15.57;;
46411;SDS011;32113;42.012;24.870;2024-02-16T08:34:37;12.70;;;7.38;;
46411;SDS011;32113;42.012;24.870;2024-02-16T08:37:03;19.95;;;17.33;;
46411;SDS011;32113;42.012;24.870;2024-02-16T08:39:30;14.20;;;10.57;;
46411;SDS011;32113;42.012;24.870;2024-02-16T08:41:56;8.57;;;6.80;;
46411;SDS011;32113;42.012;24.870;2024-02-16T08:44:21;7.75;;;5.50;;
46411;SDS011;32113;42.012;24.870;2024-02-16T08:46:47;7.63;;;4.95;;
46411;SDS011;32113;42.012;24.870;2024-02-16T08:49:14;9.30;;;5.83;;
46411;SDS011;32113;42.012;24.870;2024-02-16T08:51:40;8.57;;;6.00;;
46411;SDS011;32113;42.012;24.870;2024-02-16T08:54:06;10.73;;;6.00;;
46411;SDS011;32113;42.012;24.870;2024-02-16T08:56:31;9.85;;;5.57;;
46411;SDS011;32113;42.012;24.870;2024-02-16T08:58:57;8.90;;;6.38;;
46411;SDS011;32113;42.012;24.870;2024-02-16T09:01:32;8.05;;;4.85;;
46411;SDS011;32113;42.012;24.870;2024-02-16T09:03:58;11.85;;;6.97;;
46411;SDS011;32113;42.012;24.870;2024-02-16T09:06:25;8.30;;;4.82;;
46411;SDS011;32113;42.012;24.870;2024-02-16T09:08:51;11.65;;;6.90;;
46411;SDS011;32113;42.012;24.870;2024-02-16T09:11:16;10.00;;;6.85;;
46411;SDS011;32113;42.012;24.870;2024-02-16T09:13:42;10.20;;;6.90;;
46411;SDS011;32113;42.012;24.870;2024-02-16T09:16:08;11.55;;;5.60;;
46411;SDS011;32113;42.012;24.870;2024-02-16T09:18:33;7.32;;;5.78;;
46411;SDS011;32113;42.012;24.870;2024-02-16T09:20:59;11.38;;;6.00;;
46411;SDS011;32113;42.012;24.870;2024-02-16T09:23:24;7.10;;;5.45;;
46411;SDS011;32113;42.012;24.870;2024-02-16T09:25:50;11.98;;;5.65;;
46411;SDS011;32113;42.012;24.870;2024-02-16T09:28:16;9.68;;;5.57;;
46411;SDS011;32113;42.012;24.870;2024-02-16T09:30:44;10.32;;;5.88;;
46411;SDS011;32113;42.012;24.870;2024-02-16T09:33:09;8.68;;;6.13;;
46411;SDS011;32113;42.012;24.870;2024-02-16T09:35:35;9.70;;;5.47;;
46411;SDS011;32113;42.012;24.870;2024-02-16T09:38:00;12.40;;;7.40;;
46411;SDS011;32113;42.012;24.870;2024-02-16T09:40:25;12.48;;;6.53;;
46411;SDS011;32113;42.012;24.870;2024-02-16T09:42:51;9.35;;;5.93;;
46411;SDS011;32113;42.012;24.870;2024-02-16T09:45:17;11.15;;;6.35;;
46411;SDS011;32113;42.012;24.870;2024-02-16T09:47:43;10.63;;;6.20;;
46411;SDS011;32113;42.012;24.870;2024-02-16T09:50:11;11.55;;;8.20;;
46411;SDS011;32113;42.012;24.870;2024-02-16T09:52:37;10.52;;;5.47;;
46411;SDS011;32113;42.012;24.870;2024-02-16T09:55:03;9.57;;;7.15;;
46411;SDS011;32113;42.012;24.870;2024-02-16T09:57:32;8.07;;;5.50;;
46411;SDS011;32113;42.012;24.870;2024-02-16T09:59:57;9.45;;;5.32;;
46411;SDS011;32113;42.012;24.870;2024-02-16T10:02:23;12.52;;;9.18;;
46411;SDS011;32113;42.012;24.870;2024-02-16T10:04:48;9.82;;;6.72;;
46411;SDS011;32113;42.012;24.870;2024-02-16T10:07:14;7.88;;;4.85;;
46411;SDS011;32113;42.012;24.870;2024-02-16T10:09:40;10.27;;;5.00;;
46411;SDS011;32113;42.012;24.870;2024-02-16T10:12:06;7.68;;;4.70;;
46411;SDS011;32113;42.012;24.870;2024-02-16T10:14:32;8.80;;;4.82;;
46411;SDS011;32113;42.012;24.870;2024-02-16T10:17:04;7.32;;;4.25;;
46411;SDS011;32113;42.012;24.870;2024-02-16T10:19:31;6.82;;;3.65;;
46411;SDS011;32113;42.012;24.870;2024-02-16T10:22:08;6.45;;;3.88;;
46411;SDS011;32113;42.012;24.870;2024-02-16T10:24:37;7.38;;;3.22;;
46411;SDS011;32113;42.012;24.870;2024-02-16T10:27:13;22.80;;;12.18;;
46411;SDS011;32113;42.012;24.870;2024-02-16T10:29:42;15.40;;;9.15;;
46411;SDS011;32113;42.012;24.870;2024-02-16T10:32:09;16.83;;;10.55;;
46411;SDS011;32113;42.012;24.870;2024-02-16T10:34:35;3.75;;;2.60;;
46411;SDS011;32113;42.012;24.870;2024-02-16T10:37:04;7.90;;;5.38;;
46411;SDS011;32113;42.012;24.870;2024-02-16T10:39:31;9.30;;;7.18;;
46411;SDS011;32113;42.012;24.870;2024-02-16T10:41:57;3.70;;;2.55;;
46411;SDS011;32113;42.012;24.870;2024-02-16T10:44:25;5.82;;;4.25;;
46411;SDS011;32113;42.012;24.870;2024-02-16T10:46:53;4.13;;;2.30;;
46411;SDS011;32113;42.012;24.870;2024-02-16T10:51:49;6.00;;;2.43;;
46411;SDS011;32113;42.012;24.870;2024-02-16T10:54:19;6.28;;;3.20;;
46411;SDS011;32113;42.012;24.870;2024-02-16T10:56:49;8.95;;;5.07;;
46411;SDS011;32113;42.012;24.870;2024-02-16T10:59:18;13.00;;;6.45;;
46411;SDS011;32113;42.012;24.870;2024-02-16T11:01:44;5.05;;;2.95;;
46411;SDS011;32113;42.012;24.870;2024-02-16T11:04:16;3.50;;;2.58;;
46411;SDS011;32113;42.012;24.870;2024-02-16T11:06:46;5.85;;;3.30;;
46411;SDS011;32113;42.012;24.870;2024-02-16T11:09:55;8.75;;;5.20;;
46411;SDS011;32113;42.012;24.870;2024-02-16T11:12:04;6.00;;;3.72;;
46411;SDS011;32113;42.012;24.870;2024-02-16T11:17:08;28.98;;;19.88;;
46411;SDS011;32113;42.012;24.870;2024-02-16T11:19:41;7.38;;;4.70;;
46411;SDS011;32113;42.012;24.870;2024-02-16T11:22:07;5.10;;;2.33;;
46411;SDS011;32113;42.012;24.870;2024-02-16T11:24:34;9.35;;;4.13;;
46411;SDS011;32113;42.012;24.870;2024-02-16T11:27:04;3.58;;;2.70;;
46411;SDS011;32113;42.012;24.870;2024-02-16T11:29:34;16.52;;;10.35;;
46411;SDS011;32113;42.012;24.870;2024-02-16T11:32:02;5.38;;;2.70;;
46411;SDS011;32113;42.012;24.870;2024-02-16T11:34:28;4.70;;;3.00;;
46411;SDS011;32113;42.012;24.870;2024-02-16T11:36:54;4.38;;;2.90;;
46411;SDS011;32113;42.012;24.870;2024-02-16T11:39:21;5.78;;;3.70;;
46411;SDS011;32113;42.012;24.870;2024-02-16T11:41:47;5.43;;;3.42;;
46411;SDS011;32113;42.012;24.870;2024-02-16T11:44:13;4.32;;;2.60;;
46411;SDS011;32113;42.012;24.870;2024-02-16T11:46:41;2.85;;;1.90;;
46411;SDS011;32113;42.012;24.870;2024-02-16T11:49:07;3.47;;;2.25;;
46411;SDS011;32113;42.012;24.870;2024-02-16T11:51:34;4.97;;;2.55;;
46411;SDS011;32113;42.012;24.870;2024-02-16T11:53:59;5.53;;;2.90;;
46411;SDS011;32113;42.012;24.870;2024-02-16T11:56:25;4.00;;;2.40;;
46411;SDS011;32113;42.012;24.870;2024-02-16T11:58:54;4.20;;;2.70;;
46411;SDS011;32113;42.012;24.870;2024-02-16T12:01:20;4.22;;;2.42;;
46411;SDS011;32113;42.012;24.870;2024-02-16T12:03:46;5.07;;;2.50;;
46411;SDS011;32113;42.012;24.870;2024-02-16T12:06:19;6.05;;;2.58;;
46411;SDS011;32113;42.012;24.870;2024-02-16T12:08:46;3.97;;;2.60;;
46411;SDS011;32113;42.012;24.870;2024-02-16T12:11:12;6.53;;;2.70;;
46411;SDS011;32113;42.012;24.870;2024-02-16T12:13:39;4.72;;;3.15;;
46411;SDS011;32113;42.012;24.870;2024-02-16T12:16:05;5.82;;;2.65;;
46411;SDS011;32113;42.012;24.870;2024-02-16T12:18:31;6.95;;;3.15;;
46411;SDS011;32113;42.012;24.870;2024-02-16T12:20:58;7.40;;;3.92;;
46411;SDS011;32113;42.012;24.870;2024-02-16T12:23:31;4.72;;;2.80;;
46411;SDS011;32113;42.012;24.870;2024-02-16T12:26:00;5.10;;;3.05;;
46411;SDS011;32113;42.012;24.870;2024-02-16T12:28:27;8.68;;;5.43;;
46411;SDS011;32113;42.012;24.870;2024-02-16T12:30:54;4.88;;;3.60;;
46411;SDS011;32113;42.012;24.870;2024-02-16T12:33:21;5.40;;;3.40;;
46411;SDS011;32113;42.012;24.870;2024-02-16T12:35:47;4.88;;;2.72;;
46411;SDS011;32113;42.012;24.870;2024-02-16T12:38:12;7.53;;;4.85;;
46411;SDS011;32113;42.012;24.870;2024-02-16T12:40:38;20.50;;;10.82;;
46411;SDS011;32113;42.012;24.870;2024-02-16T12:43:03;5.13;;;2.65;;
46411;SDS011;32113;42.012;24.870;2024-02-16T12:45:29;5.90;;;3.10;;
46411;SDS011;32113;42.012;24.870;2024-02-16T12:47:56;9.52;;;4.88;;
46411;SDS011;32113;42.012;24.870;2024-02-16T12:50:22;43.08;;;23.15;;
46411;SDS011;32113;42.012;24.870;2024-02-16T12:52:47;6.72;;;4.53;;
46411;SDS011;32113;42.012;24.870;2024-02-16T12:55:12;25.45;;;13.52;;
46411;SDS011;32113;42.012;24.870;2024-02-16T12:57:39;6.38;;;3.50;;
46411;SDS011;32113;42.012;24.870;2024-02-16T13:00:04;6.07;;;4.00;;
46411;SDS011;32113;42.012;24.870;2024-02-16T13:02:30;10.75;;;4.75;;
46411;SDS011;32113;42.012;24.870;2024-02-16T13:04:56;5.93;;;3.95;;
46411;SDS011;32113;42.012;24.870;2024-02-16T13:07:21;5.32;;;4.40;;
46411;SDS011;32113;42.012;24.870;2024-02-16T13:09:47;5.57;;;3.38;;
46411;SDS011;32113;42.012;24.870;2024-02-16T13:12:15;10.13;;;4.53;;
46411;SDS011;32113;42.012;24.870;2024-02-16T13:14:41;9.55;;;7.15;;
46411;SDS011;32113;42.012;24.870;2024-02-16T13:17:06;13.07;;;10.10;;
46411;SDS011;32113;42.012;24.870;2024-02-16T13:19:32;19.00;;;16.75;;
46411;SDS011;32113;42.012;24.870;2024-02-16T13:21:58;10.63;;;6.00;;
46411;SDS011;32113;42.012;24.870;2024-02-16T13:24:23;5.22;;;3.85;;
46411;SDS011;32113;42.012;24.870;2024-02-16T13:26:49;6.18;;;3.80;;
46411;SDS011;32113;42.012;24.870;2024-02-16T13:29:14;6.65;;;4.20;;
46411;SDS011;32113;42.012;24.870;2024-02-16T13:31:40;6.55;;;4.00;;
46411;SDS011;32113;42.012;24.870;2024-02-16T13:34:07;5.50;;;3.63;;
46411;SDS011;32113;42.012;24.870;2024-02-16T13:36:33;8.35;;;4.90;;
46411;SDS011;32113;42.012;24.870;2024-02-16T13:38:58;4.30;;;3.03;;
46411;SDS011;32113;42.012;24.870;2024-02-16T13:41:24;13.13;;;2.92;;
46411;SDS011;32113;42.012;24.870;2024-02-16T13:43:50;8.05;;;3.60;;
46411;SDS011;32113;42.012;24.870;2024-02-16T13:46:16;8.40;;;3.72;;
46411;SDS011;32113;42.012;24.870;2024-02-16T13:48:42;6.75;;;5.35;;
46411;SDS011;32113;42.012;24.870;2024-02-16T13:51:08;6.03;;;4.57;;
46411;SDS011;32113;42.012;24.870;2024-02-16T13:53:33;74.47;;;54.00;;
46411;SDS011;32113;42.012;24.870;2024-02-16T13:55:59;10.75;;;7.78;;
46411;SDS011;32113;42.012;24.870;2024-02-16T13:58:29;5.63;;;3.67;;
46411;SDS011;32113;42.012;24.870;2024-02-16T14:00:55;14.70;;;9.70;;
46411;SDS011;32113;42.012;24.870;2024-02-16T14:03:21;9.13;;;5.45;;
46411;SDS011;32113;42.012;24.870;2024-02-16T14:05:46;5.72;;;3.83;;
46411;SDS011;32113;42.012;24.870;2024-02-16T14:08:12;7.63;;;3.80;;
46411;SDS011;32113;42.012;24.870;2024-02-16T14:10:39;9.88;;;3.33;;
46411;SDS011;32113;42.012;24.870;2024-02-16T14:13:05;6.38;;;3.30;;
46411;SDS011;32113;42.012;24.870;2024-02-16T14:15:31;5.38;;;3.35;;
46411;SDS011;32113;42.012;24.870;2024-02-16T14:17:56;4.60;;;3.45;;
46411;SDS011;32113;42.012;24.870;2024-02-16T14:20:21;4.45;;;3.58;;
46411;SDS011;32113;42.012;24.870;2024-02-16T14:22:47;8.68;;;4.15;;
46411;SDS011;32113;42.012;24.870;2024-02-16T14:25:13;42.10;;;36.50;;
46411;SDS011;32113;42.012;24.870;2024-02-16T14:27:39;8.75;;;6.47;;